Time,TemperatureF,DewpointF,PressureIn,WindDirection,WindDirectionDegrees,WindSpeedMPH,WindSpeedGustMPH,Humidity,HourlyPrecipIn,Conditions,Clouds,dailyrainin,SolarRadiationWatts/m^2,SoftwareType,DateUTC
2014-01-02 00:00:00,32.6,16.0,30.30,West,280,0.0,1.0,50,0.00,,CLR,0.00,0.00,VWS V14.01,2014-01-02 07:00:00,
2014-01-02 00:05:00,32.6,16.0,30.30,West,280,0.0,1.0,50,0.00,,CLR,0.00,0.00,VWS V14.01,2014-01-02 07:05:00,
2014-01-02 00:08:00,32.6,16.0,30.30,West,280,0.0,1.0,50,0.00,,CLR,0.00,0.00,VWS V14.01,2014-01-02 07:08:00,
2014-01-02 00:13:00,32.4,15.9,30.30,West,280,0.0,0.0,50,0.00,,CLR,0.00,0.00,VWS V14.01,2014-01-02 07:13:00,
2014-01-02 00:18:00,32.3,15.3,30.31,West,280,0.0,0.0,49,0.00,,CLR,0.00,0.00,VWS V14.01,2014-01-02 07:18:00,
2014-01-02 00:23:00,32.1,16.0,30.31,West,280,0.0,0.0,51,0.00,,CLR,0.00,0.00,VWS V14.01,2014-01-02 07:23:00,
2014-01-02 00:28:00,31.9,15.4,30.31,West,280,0.0,0.0,50,0.00,,CLR,0.00,0.00,VWS V14.01,2014-01-02 07:28:00,
2014-01-02 00:34:00,31.5,15.5,30.31,West,280,0.0,0.0,51,0.00,,CLR,0.00,0.00,VWS V14.01,2014-01-02 07:34:00,
2014-01-02 00:39:00,31.3,15.7,30.31,West,280,0.0,0.0,52,0.00,,CLR,0.00,0.00,VWS V14.01,2014-01-02 07:39:00,
2014-01-02 00:44:00,31.1,15.5,30.31,West,280,0.0,0.0,52,0.00,,CLR,0.00,0.00,VWS V14.01,2014-01-02 07:44:00,
2014-01-02 00:49:00,31.0,15.4,30.31,West,280,0.0,0.0,52,0.00,,CLR,0.00,0.00,VWS V14.01,2014-01-02 07:49:00,
2014-01-02 00:54:00,30.6,15.1,30.31,West,280,0.0,0.0,52,0.00,,CLR,0.00,0.00,VWS V14.01,2014-01-02 07:54:00,
2014-01-02 00:59:00,30.4,14.9,30.31,West,280,0.0,0.0,52,0.00,,CLR,0.00,0.00,VWS V14.01,2014-01-02 07:59:00,
2014-01-02 01:04:00,30.2,15.1,30.31,West,280,0.0,0.0,53,0.00,,CLR,0.00,0.00,VWS V14.01,2014-01-02 08:04:00,
2014-01-02 01:09:00,29.8,15.2,30.31,West,280,0.0,0.0,54,0.00,,CLR,0.00,0.00,VWS V14.01,2014-01-02 08:09:00,
2014-01-02 01:14:00,29.6,15.0,30.31,West,280,0.0,0.0,54,0.00,,CLR,0.00,0.00,VWS V14.01,2014-01-02 08:14:00,
2014-01-02 01:19:00,29.4,15.2,30.31,West,280,0.0,0.0,55,0.00,,CLR,0.00,0.00,VWS V14.01,2014-01-02 08:19:00,
2014-01-02 01:24:00,29.2,15.1,30.32,West,280,1.0,1.0,55,0.00,,CLR,0.00,0.00,VWS V14.01,2014-01-02 08:24:00,
2014-01-02 01:29:00,29.1,15.0,30.32,West,280,0.0,0.0,55,0.00,,CLR,0.00,0.00,VWS V14.01,2014-01-02 08:29:00,
2014-01-02 01:34:00,29.0,14.9,30.32,West,280,0.0,0.0,55,0.00,,CLR,0.00,0.00,VWS V14.01,2014-01-02 08:34:00,
2014-01-02 01:39:00,28.8,15.1,30.32,West,280,0.0,0.0,56,0.00,,CLR,0.00,0.00,VWS V14.01,2014-01-02 08:39:00,
2014-01-02 01:44:00,28.7,15.0,30.32,West,280,0.0,0.0,56,0.00,,CLR,0.00,0.00,VWS V14.01,2014-01-02 08:44:00,
2014-01-02 01:49:00,28.5,14.8,30.32,West,280,0.0,1.0,56,0.00,,CLR,0.00,0.00,VWS V14.01,2014-01-02 08:49:00,
2014-01-02 01:55:00,28.4,15.1,30.32,West,280,0.0,0.0,57,0.00,,CLR,0.00,0.00,VWS V14.01,2014-01-02 08:55:00,
2014-01-02 02:00:00,28.4,15.5,30.32,West,280,2.0,2.0,58,0.00,,CLR,0.00,0.00,VWS V14.01,2014-01-02 09:00:00,
2014-01-02 02:05:00,28.4,15.5,30.32,West,280,0.0,2.0,58,0.00,,CLR,0.00,0.00,VWS V14.01,2014-01-02 09:05:00,
2014-01-02 02:10:00,28.4,15.5,30.32,West,280,0.0,1.0,58,0.00,,CLR,0.00,0.00,VWS V14.01,2014-01-02 09:10:00,
2014-01-02 02:15:00,28.4,15.5,30.32,West,280,1.0,2.0,58,0.00,,CLR,0.00,0.00,VWS V14.01,2014-01-02 09:15:00,
2014-01-02 02:20:00,28.3,15.4,30.33,West,280,1.0,2.0,58,0.00,,CLR,0.00,0.00,VWS V14.01,2014-01-02 09:20:00,
2014-01-02 02:25:00,28.3,15.4,30.33,West,280,2.0,2.0,58,0.00,,CLR,0.00,0.00,VWS V14.01,2014-01-02 09:25:00,
2014-01-02 02:30:00,28.3,15.0,30.33,West,280,0.0,0.0,57,0.00,,CLR,0.00,0.00,VWS V14.01,2014-01-02 09:30:00,
2014-01-02 02:35:00,28.2,15.3,30.33,West,280,0.0,0.0,58,0.00,,CLR,0.00,0.00,VWS V14.01,2014-01-02 09:35:00,
2014-01-02 02:40:00,28.2,15.3,30.33,West,280,0.0,1.0,58,0.00,,CLR,0.00,0.00,VWS V14.01,2014-01-02 09:40:00,
2014-01-02 02:45:00,28.1,15.2,30.33,West,280,3.0,3.0,58,0.00,,CLR,0.00,0.00,VWS V14.01,2014-01-02 09:45:00,
2014-01-02 02:50:00,28.0,15.1,30.33,West,280,2.0,3.0,58,0.00,,CLR,0.00,0.00,VWS V14.01,2014-01-02 09:50:00,
2014-01-02 02:55:00,27.9,15.4,30.33,West,280,0.0,2.0,59,0.00,,CLR,0.00,0.00,VWS V14.01,2014-01-02 09:55:00,
2014-01-02 03:00:00,27.9,15.4,30.33,West,280,0.0,0.0,59,0.00,,CLR,0.00,0.00,VWS V14.01,2014-01-02 10:00:00,
2014-01-02 03:05:00,27.9,15.4,30.33,West,280,0.0,1.0,59,0.00,,CLR,0.00,0.00,VWS V14.01,2014-01-02 10:05:00,
2014-01-02 03:10:00,27.8,15.7,30.33,West,280,0.0,0.0,60,0.00,,CLR,0.00,0.00,VWS V14.01,2014-01-02 10:10:00,
2014-01-02 03:15:00,27.6,15.6,30.33,West,280,2.0,2.0,60,0.00,,CLR,0.00,0.00,VWS V14.01,2014-01-02 10:15:00,
2014-01-02 03:20:00,27.6,15.6,30.33,West,280,0.0,1.0,60,0.00,,CLR,0.00,0.00,VWS V14.01,2014-01-02 10:20:00,
2014-01-02 03:26:00,27.5,15.4,30.33,West,280,0.0,1.0,60,0.00,,CLR,0.00,0.00,VWS V14.01,2014-01-02 10:26:00,
2014-01-02 03:31:00,27.4,15.4,30.33,West,280,0.0,0.0,60,0.00,,CLR,0.00,0.00,VWS V14.01,2014-01-02 10:31:00,
2014-01-02 03:36:00,27.2,15.6,30.33,West,280,0.0,0.0,61,0.00,,CLR,0.00,0.00,VWS V14.01,2014-01-02 10:36:00,
2014-01-02 03:41:00,27.2,15.9,30.33,West,280,0.0,1.0,62,0.00,,CLR,0.00,0.00,VWS V14.01,2014-01-02 10:41:00,
2014-01-02 03:46:00,27.1,15.8,30.33,West,280,1.0,2.0,62,0.00,,CLR,0.00,0.00,VWS V14.01,2014-01-02 10:46:00,
2014-01-02 03:51:00,27.0,16.1,30.33,West,280,2.0,4.0,63,0.00,,CLR,0.00,0.00,VWS V14.01,2014-01-02 10:51:00,
2014-01-02 03:56:00,26.9,16.0,30.33,West,280,2.0,3.0,63,0.00,,CLR,0.00,0.00,VWS V14.01,2014-01-02 10:56:00,
2014-01-02 04:01:00,26.9,16.4,30.33,West,280,1.0,3.0,64,0.00,,CLR,0.00,0.00,VWS V14.01,2014-01-02 11:01:00,
2014-01-02 04:06:00,26.9,16.4,30.33,West,280,1.0,3.0,64,0.00,,CLR,0.00,0.00,VWS V14.01,2014-01-02 11:06:00,
2014-01-02 04:11:00,26.9,16.7,30.33,NW,306,2.0,4.0,65,0.00,,CLR,0.00,0.00,VWS V14.01,2014-01-02 11:11:00,
2014-01-02 04:16:00,27.0,16.8,30.33,NW,306,0.0,0.0,65,0.00,,CLR,0.00,0.00,VWS V14.01,2014-01-02 11:16:00,
2014-01-02 04:21:00,27.0,17.2,30.34,NW,306,0.0,0.0,66,0.00,,CLR,0.00,0.00,VWS V14.01,2014-01-02 11:21:00,
2014-01-02 04:26:00,27.0,17.2,30.34,NW,306,0.0,0.0,66,0.00,,CLR,0.00,0.00,VWS V14.01,2014-01-02 11:26:00,
2014-01-02 04:31:00,26.9,16.7,30.34,NW,306,0.0,0.0,65,0.00,,CLR,0.00,0.00,VWS V14.01,2014-01-02 11:31:00,
2014-01-02 04:36:00,26.8,16.6,30.34,NW,306,0.0,0.0,65,0.00,,CLR,0.00,0.00,VWS V14.01,2014-01-02 11:36:00,
2014-01-02 04:41:00,26.7,16.2,30.33,NW,306,0.0,0.0,64,0.00,,CLR,0.00,0.00,VWS V14.01,2014-01-02 11:41:00,
2014-01-02 04:46:00,26.6,16.1,30.34,NW,306,0.0,0.0,64,0.00,,CLR,0.00,0.00,VWS V14.01,2014-01-02 11:46:00,
2014-01-02 04:51:00,26.3,16.1,30.34,NW,306,0.0,0.0,65,0.00,,CLR,0.00,0.00,VWS V14.01,2014-01-02 11:51:00,
2014-01-02 04:57:00,26.1,16.0,30.34,NW,306,0.0,0.0,65,0.00,,CLR,0.00,0.00,VWS V14.01,2014-01-02 11:57:00,
2014-01-02 05:02:00,26.0,15.9,30.34,NW,306,0.0,0.0,65,0.00,,CLR,0.00,0.00,VWS V14.01,2014-01-02 12:02:00,
2014-01-02 05:07:00,25.6,16.5,30.34,NW,306,0.0,0.0,68,0.00,,CLR,0.00,0.00,VWS V14.01,2014-01-02 12:07:00,
2014-01-02 05:12:00,25.4,16.3,30.34,NW,306,0.0,0.0,68,0.00,,CLR,0.00,0.00,VWS V14.01,2014-01-02 12:12:00,
2014-01-02 05:17:00,25.3,16.2,30.34,NW,306,0.0,0.0,68,0.00,,CLR,0.00,0.00,VWS V14.01,2014-01-02 12:17:00,
2014-01-02 05:22:00,25.1,16.4,30.35,NW,306,0.0,0.0,69,0.00,,CLR,0.00,0.00,VWS V14.01,2014-01-02 12:22:00,
2014-01-02 05:27:00,25.0,16.3,30.34,NW,306,0.0,0.0,69,0.00,,CLR,0.00,0.00,VWS V14.01,2014-01-02 12:27:00,
2014-01-02 05:32:00,24.8,16.1,30.35,NW,306,0.0,1.0,69,0.00,,CLR,0.00,0.00,VWS V14.01,2014-01-02 12:32:00,
2014-01-02 05:37:00,24.7,16.6,30.35,NW,306,0.0,2.0,71,0.00,,CLR,0.00,0.00,VWS V14.01,2014-01-02 12:37:00,
2014-01-02 05:42:00,24.6,16.9,30.35,NW,306,0.0,0.0,72,0.00,,CLR,0.00,0.00,VWS V14.01,2014-01-02 12:42:00,
2014-01-02 05:47:00,24.5,16.8,30.35,NW,306,0.0,0.0,72,0.00,,CLR,0.00,0.00,VWS V14.01,2014-01-02 12:47:00,
2014-01-02 05:52:00,24.3,16.6,30.35,NW,306,0.0,0.0,72,0.00,,CLR,0.00,0.00,VWS V14.01,2014-01-02 12:52:00,
2014-01-02 05:57:00,24.2,16.5,30.35,NW,306,0.0,0.0,72,0.00,,CLR,0.00,0.00,VWS V14.01,2014-01-02 12:57:00,
2014-01-02 06:02:00,24.1,16.7,30.35,NW,306,0.0,0.0,73,0.00,,CLR,0.00,0.00,VWS V14.01,2014-01-02 13:02:00,
2014-01-02 06:07:00,24.0,16.9,30.35,NW,306,0.0,0.0,74,0.00,,CLR,0.00,0.00,VWS V14.01,2014-01-02 13:07:00,
2014-01-02 06:13:00,23.9,16.8,30.35,NW,306,0.0,0.0,74,0.00,,CLR,0.00,0.00,VWS V14.01,2014-01-02 13:13:00,
2014-01-02 06:18:00,23.8,16.7,30.35,NW,306,0.0,0.0,74,0.00,,CLR,0.00,0.00,VWS V14.01,2014-01-02 13:18:00,
2014-01-02 06:23:00,23.6,16.5,30.35,NW,306,0.0,0.0,74,0.00,,CLR,0.00,0.00,VWS V14.01,2014-01-02 13:23:00,
2014-01-02 06:28:00,23.5,16.8,30.35,NW,306,0.0,0.0,75,0.00,,CLR,0.00,0.00,VWS V14.01,2014-01-02 13:28:00,
2014-01-02 06:33:00,23.4,17.0,30.35,NW,306,0.0,0.0,76,0.00,,CLR,0.00,0.00,VWS V14.01,2014-01-02 13:33:00,
2014-01-02 06:38:00,23.4,17.0,30.35,NW,306,0.0,3.0,76,0.00,,CLR,0.00,0.00,VWS V14.01,2014-01-02 13:38:00,
2014-01-02 06:43:00,23.4,17.6,30.35,NW,306,0.0,1.0,78,0.00,,CLR,0.00,0.00,VWS V14.01,2014-01-02 13:43:00,
2014-01-02 06:48:00,23.5,17.7,30.35,NW,306,0.0,0.0,78,0.00,,CLR,0.00,0.00,VWS V14.01,2014-01-02 13:48:00,
2014-01-02 06:53:00,23.6,18.1,30.35,NW,306,0.0,0.0,79,0.00,,CLR,0.00,0.00,VWS V14.01,2014-01-02 13:53:00,
2014-01-02 06:58:00,23.6,18.1,30.36,NW,306,0.0,0.0,79,0.00,,CLR,0.00,0.00,VWS V14.01,2014-01-02 13:58:00,
2014-01-02 07:03:00,23.7,18.1,30.35,NW,306,0.0,0.0,79,0.00,,CLR,0.00,0.00,VWS V14.01,2014-01-02 14:03:00,
2014-01-02 07:08:00,23.9,18.6,30.35,NW,306,0.0,4.0,80,0.00,,CLR,0.00,0.00,VWS V14.01,2014-01-02 14:08:00,
2014-01-02 07:14:00,23.9,18.4,30.36,NW,306,0.0,0.0,79,0.00,,CLR,0.00,0.00,VWS V14.01,2014-01-02 14:14:00,
2014-01-02 07:19:00,23.9,18.4,30.36,NW,306,0.0,0.0,79,0.00,,CLR,0.00,5.00,VWS V14.01,2014-01-02 14:19:00,
2014-01-02 07:24:00,23.9,18.4,30.36,NW,306,0.0,0.0,79,0.00,,CLR,0.00,7.00,VWS V14.01,2014-01-02 14:24:00,
2014-01-02 07:29:00,23.8,18.0,30.35,NW,306,0.0,0.0,78,0.00,,CLR,0.00,9.00,VWS V14.01,2014-01-02 14:29:00,
2014-01-02 07:34:00,23.7,17.9,30.36,NW,306,0.0,0.0,78,0.00,,CLR,0.00,11.00,VWS V14.01,2014-01-02 14:34:00,
2014-01-02 07:39:00,23.6,17.8,30.35,NW,306,0.0,0.0,78,0.00,,CLR,0.00,12.00,VWS V14.01,2014-01-02 14:39:00,
2014-01-02 07:44:00,23.5,17.4,30.35,NW,306,0.0,0.0,77,0.00,,CLR,0.00,14.00,VWS V14.01,2014-01-02 14:44:00,
2014-01-02 07:49:00,23.4,17.3,30.35,NW,306,0.0,0.0,77,0.00,,CLR,0.00,16.00,VWS V14.01,2014-01-02 14:49:00,
2014-01-02 07:54:00,23.3,17.2,30.35,NW,306,0.0,0.0,77,0.00,,CLR,0.00,23.00,VWS V14.01,2014-01-02 14:54:00,
2014-01-02 07:59:00,23.2,17.1,30.36,NW,306,0.0,0.0,77,0.00,,CLR,0.00,19.00,VWS V14.01,2014-01-02 14:59:00,
2014-01-02 08:04:00,23.2,17.4,30.36,NW,306,0.0,0.0,78,0.00,,CLR,0.00,19.00,VWS V14.01,2014-01-02 15:04:00,
2014-01-02 08:09:00,23.1,17.3,30.36,NW,306,0.0,0.0,78,0.00,,CLR,0.00,19.00,VWS V14.01,2014-01-02 15:09:00,
2014-01-02 08:14:00,23.2,17.7,30.36,NW,306,0.0,0.0,79,0.00,,CLR,0.00,25.00,VWS V14.01,2014-01-02 15:14:00,
2014-01-02 08:19:00,23.3,18.1,30.36,NW,306,0.0,0.0,80,0.00,,CLR,0.00,21.00,VWS V14.01,2014-01-02 15:19:00,
2014-01-02 08:24:00,23.4,18.1,30.36,NW,306,0.0,0.0,80,0.00,,CLR,0.00,35.00,VWS V14.01,2014-01-02 15:24:00,
2014-01-02 08:29:00,23.8,18.8,30.36,NW,306,0.0,0.0,81,0.00,,CLR,0.00,23.00,VWS V14.01,2014-01-02 15:29:00,
2014-01-02 08:34:00,24.4,19.7,30.37,NNE,30,3.0,4.0,82,0.00,,CLR,0.00,25.00,VWS V14.01,2014-01-02 15:34:00,
2014-01-02 08:39:00,25.2,20.5,30.37,North,355,4.0,6.0,82,0.00,,CLR,0.00,25.00,VWS V14.01,2014-01-02 15:39:00,
2014-01-02 08:45:00,26.1,21.4,30.37,North,5,2.0,5.0,82,0.00,,CLR,0.00,25.00,VWS V14.01,2014-01-02 15:45:00,
2014-01-02 08:50:00,27.0,21.7,30.37,North,5,2.0,3.0,80,0.00,,CLR,0.00,26.00,VWS V14.01,2014-01-02 15:50:00,
2014-01-02 08:55:00,27.6,22.0,30.37,North,350,1.0,2.0,79,0.00,,CLR,0.00,28.00,VWS V14.01,2014-01-02 15:55:00,
2014-01-02 09:00:00,28.0,22.0,30.37,North,350,3.0,3.0,78,0.00,,CLR,0.00,28.00,VWS V14.01,2014-01-02 16:00:00,
2014-01-02 09:05:00,28.4,22.1,30.37,North,350,1.0,3.0,77,0.00,,CLR,0.00,28.00,VWS V14.01,2014-01-02 16:05:00,
2014-01-02 09:10:00,28.8,22.2,30.37,North,350,1.0,3.0,76,0.00,,CLR,0.00,30.00,VWS V14.01,2014-01-02 16:10:00,
2014-01-02 09:15:00,29.2,22.3,30.37,North,351,2.0,3.0,75,0.00,,CLR,0.00,30.00,VWS V14.01,2014-01-02 16:15:00,
2014-01-02 09:20:00,29.8,22.9,30.37,North,355,1.0,3.0,75,0.00,,CLR,0.00,58.00,VWS V14.01,2014-01-02 16:20:00,
2014-01-02 09:25:00,30.2,22.6,30.38,North,355,0.0,2.0,73,0.00,,CLR,0.00,237.00,VWS V14.01,2014-01-02 16:25:00,
2014-01-02 09:31:00,30.6,23.0,30.38,North,351,0.0,0.0,73,0.00,,CLR,0.00,58.00,VWS V14.01,2014-01-02 16:31:00,
2014-01-02 09:36:00,30.8,22.9,30.38,North,351,0.0,0.0,72,0.00,,CLR,0.00,32.00,VWS V14.01,2014-01-02 16:36:00,
2014-01-02 09:41:00,31.2,23.2,30.37,North,355,0.0,1.0,72,0.00,,CLR,0.00,30.00,VWS V14.01,2014-01-02 16:41:00,
2014-01-02 09:46:00,31.7,23.0,30.37,North,351,0.0,2.0,70,0.00,,CLR,0.00,30.00,VWS V14.01,2014-01-02 16:46:00,
2014-01-02 09:51:00,32.2,23.2,30.37,North,355,0.0,0.0,69,0.00,,CLR,0.00,32.00,VWS V14.01,2014-01-02 16:51:00,
2014-01-02 09:56:00,32.5,23.1,30.37,North,351,0.0,0.0,68,0.00,,CLR,0.00,37.00,VWS V14.01,2014-01-02 16:56:00,
2014-01-02 10:01:00,33.0,23.6,30.37,North,355,0.0,2.0,68,0.00,,FEW280,0.00,88.00,VWS V14.01,2014-01-02 17:01:00,
2014-01-02 10:06:00,33.7,23.6,30.37,East,87,0.0,2.0,66,0.00,,FEW280,0.00,452.00,VWS V14.01,2014-01-02 17:06:00,
2014-01-02 10:11:00,34.0,23.5,30.37,East,88,0.0,2.0,65,0.00,,FEW280,0.00,462.00,VWS V14.01,2014-01-02 17:11:00,
2014-01-02 10:17:00,34.7,23.8,30.37,East,80,0.0,3.0,64,0.00,,FEW280,0.00,473.00,VWS V14.01,2014-01-02 17:17:00,
2014-01-02 10:22:00,36.6,24.4,30.37,East,101,0.0,0.0,61,0.00,,FEW280,0.00,483.00,VWS V14.01,2014-01-02 17:22:00,
2014-01-02 10:27:00,37.9,24.5,30.37,East,97,0.0,2.0,58,0.00,,FEW280,0.00,492.00,VWS V14.01,2014-01-02 17:27:00,
2014-01-02 10:32:00,38.8,24.0,30.37,East,88,0.0,3.0,55,0.00,,FEW280,0.00,499.00,VWS V14.01,2014-01-02 17:32:00,
2014-01-02 10:37:00,39.1,23.9,30.37,East,88,0.0,0.0,54,0.00,,FEW280,0.00,506.00,VWS V14.01,2014-01-02 17:37:00,
2014-01-02 10:42:00,39.8,24.1,30.36,East,94,2.0,3.0,53,0.00,,FEW280,0.00,515.00,VWS V14.01,2014-01-02 17:42:00,
2014-01-02 10:47:00,40.8,24.1,30.36,ESE,115,1.0,3.0,51,0.00,,FEW280,0.00,522.00,VWS V14.01,2014-01-02 17:47:00,
2014-01-02 10:52:00,41.9,24.6,30.36,ESE,115,2.0,2.0,50,0.00,,FEW280,0.00,529.00,VWS V14.01,2014-01-02 17:52:00,
2014-01-02 10:58:00,42.7,24.9,30.36,SSE,160,1.0,4.0,49,0.00,,FEW280,0.00,534.00,VWS V14.01,2014-01-02 17:58:00,
2014-01-02 11:03:00,43.3,24.9,30.36,SSE,161,1.0,3.0,48,0.00,,FEW280,0.00,540.00,VWS V14.01,2014-01-02 18:03:00,
2014-01-02 11:08:00,43.9,24.5,30.36,SSE,163,0.0,3.0,46,0.00,,FEW280,0.00,545.00,VWS V14.01,2014-01-02 18:08:00,
2014-01-02 11:13:00,44.3,24.8,30.35,SSE,153,1.0,4.0,46,0.00,,FEW280,0.00,550.00,VWS V14.01,2014-01-02 18:13:00,
2014-01-02 11:18:00,44.9,24.9,30.35,SSE,157,2.0,3.0,45,0.00,,FEW280,0.00,555.00,VWS V14.01,2014-01-02 18:18:00,
2014-01-02 11:23:00,45.7,25.0,30.35,SSE,157,0.0,3.0,44,0.00,,FEW280,0.00,557.00,VWS V14.01,2014-01-02 18:23:00,
2014-01-02 11:28:00,45.6,24.4,30.35,SSE,157,0.0,2.0,43,0.00,,FEW280,0.00,559.00,VWS V14.01,2014-01-02 18:28:00,
2014-01-02 11:33:00,46.1,24.9,30.34,SSE,157,0.0,3.0,43,0.00,,FEW280,0.00,566.00,VWS V14.01,2014-01-02 18:33:00,
2014-01-02 11:38:00,47.0,24.5,30.34,SSE,157,2.0,4.0,41,0.00,,FEW280,0.00,568.00,VWS V14.01,2014-01-02 18:38:00,
2014-01-02 11:44:00,47.5,24.4,30.33,SSE,157,0.0,4.0,40,0.00,,FEW280,0.00,570.00,VWS V14.01,2014-01-02 18:44:00,
2014-01-02 11:49:00,47.9,24.8,30.33,SSE,157,3.0,4.0,40,0.00,,FEW280,0.00,571.00,VWS V14.01,2014-01-02 18:49:00,
2014-01-02 11:54:00,48.4,24.0,30.33,SSE,157,0.0,4.0,38,0.00,,FEW280,0.00,573.00,VWS V14.01,2014-01-02 18:54:00,
2014-01-02 11:59:00,49.4,22.9,30.33,SSE,157,0.0,4.0,35,0.00,,FEW280,0.00,573.00,VWS V14.01,2014-01-02 18:59:00,
2014-01-02 12:04:00,50.0,24.1,30.33,SSE,157,0.0,3.0,36,0.00,,FEW300,0.00,575.00,VWS V14.01,2014-01-02 19:04:00,
2014-01-02 12:09:00,50.1,22.8,30.32,East,98,0.0,1.0,34,0.00,,FEW300,0.00,575.00,VWS V14.01,2014-01-02 19:09:00,
2014-01-02 12:14:00,50.4,21.7,30.32,ESE,121,0.0,0.0,32,0.00,,FEW300,0.00,577.00,VWS V14.01,2014-01-02 19:14:00,
2014-01-02 12:19:00,51.3,22.5,30.32,SE,134,0.0,0.0,32,0.00,,FEW300,0.00,578.00,VWS V14.01,2014-01-02 19:19:00,
2014-01-02 12:24:00,51.8,21.4,30.31,SE,134,0.0,0.0,30,0.00,,FEW300,0.00,582.00,VWS V14.01,2014-01-02 19:24:00,
2014-01-02 12:29:00,52.6,20.4,30.31,South,173,1.0,3.0,28,0.00,,FEW300,0.00,584.00,VWS V14.01,2014-01-02 19:29:00,
2014-01-02 12:34:00,53.0,19.9,30.31,South,178,2.0,3.0,27,0.00,,FEW300,0.00,592.00,VWS V14.01,2014-01-02 19:34:00,
2014-01-02 12:39:00,53.6,19.6,30.31,South,190,0.0,2.0,26,0.00,,FEW300,0.00,529.00,VWS V14.01,2014-01-02 19:39:00,
2014-01-02 12:44:00,53.4,19.4,30.30,South,190,2.0,2.0,26,0.00,,FEW300,0.00,547.00,VWS V14.01,2014-01-02 19:44:00,
2014-01-02 12:50:00,53.3,19.3,30.30,South,190,0.0,2.0,26,0.00,,FEW300,0.00,570.00,VWS V14.01,2014-01-02 19:50:00,
2014-01-02 12:55:00,53.6,18.6,30.30,South,175,3.0,4.0,25,0.00,,FEW300,0.00,557.00,VWS V14.01,2014-01-02 19:55:00,
2014-01-02 13:00:00,53.9,18.9,30.29,SSW,197,2.0,5.0,25,0.00,,FEW300,0.00,548.00,VWS V14.01,2014-01-02 20:00:00,
2014-01-02 13:05:00,54.4,18.4,30.29,East,101,0.0,2.0,24,0.00,,FEW300,0.00,541.00,VWS V14.01,2014-01-02 20:05:00,
2014-01-02 13:10:00,55.0,17.9,30.29,South,178,0.0,3.0,23,0.00,,FEW300,0.00,538.00,VWS V14.01,2014-01-02 20:10:00,
2014-01-02 13:15:00,55.4,17.2,30.28,South,173,0.0,4.0,22,0.00,,FEW300,0.00,533.00,VWS V14.01,2014-01-02 20:15:00,
2014-01-02 13:20:00,55.2,18.1,30.28,South,174,1.0,3.0,23,0.00,,FEW300,0.00,524.00,VWS V14.01,2014-01-02 20:20:00,
2014-01-02 13:26:00,55.0,17.9,30.28,South,174,0.0,0.0,23,0.00,,FEW300,0.00,517.00,VWS V14.01,2014-01-02 20:26:00,
2014-01-02 13:31:00,55.2,17.0,30.28,South,174,4.0,6.0,22,0.00,,FEW300,0.00,510.00,VWS V14.01,2014-01-02 20:31:00,
2014-01-02 13:36:00,55.5,17.3,30.27,South,174,0.0,0.0,22,0.00,,FEW300,0.00,503.00,VWS V14.01,2014-01-02 20:36:00,
2014-01-02 13:41:00,55.8,18.6,30.27,South,174,0.0,0.0,23,0.00,,FEW300,0.00,496.00,VWS V14.01,2014-01-02 20:41:00,
2014-01-02 13:46:00,56.2,16.8,30.27,South,174,0.0,3.0,21,0.00,,FEW300,0.00,487.00,VWS V14.01,2014-01-02 20:46:00,
2014-01-02 13:51:00,56.4,15.9,30.27,SSW,193,1.0,7.0,20,0.00,,FEW300,0.00,478.00,VWS V14.01,2014-01-02 20:51:00,
2014-01-02 13:56:00,56.2,15.7,30.26,South,187,0.0,4.0,20,0.00,,FEW300,0.00,468.00,VWS V14.01,2014-01-02 20:56:00,
2014-01-02 14:01:00,56.6,16.0,30.26,South,187,0.0,1.0,20,0.00,,FEW300,0.00,459.00,VWS V14.01,2014-01-02 21:01:00,
2014-01-02 14:06:00,57.0,16.4,30.26,South,186,0.0,4.0,20,0.00,,FEW300,0.00,448.00,VWS V14.01,2014-01-02 21:06:00,
2014-01-02 14:11:00,57.1,15.2,30.26,South,184,3.0,4.0,19,0.00,,FEW300,0.00,439.00,VWS V14.01,2014-01-02 21:11:00,
2014-01-02 14:16:00,57.1,14.0,30.26,South,183,0.0,6.0,18,0.00,,FEW300,0.00,427.00,VWS V14.01,2014-01-02 21:16:00,
2014-01-02 14:22:00,57.1,15.2,30.26,South,185,0.0,3.0,19,0.00,,FEW300,0.00,418.00,VWS V14.01,2014-01-02 21:22:00,
2014-01-02 14:27:00,57.2,14.1,30.26,South,184,0.0,4.0,18,0.00,,FEW300,0.00,406.00,VWS V14.01,2014-01-02 21:27:00,
2014-01-02 14:32:00,57.4,14.3,30.26,South,175,0.0,5.0,18,0.00,,FEW300,0.00,394.00,VWS V14.01,2014-01-02 21:32:00,
2014-01-02 14:37:00,57.6,15.7,30.26,South,175,2.0,4.0,19,0.00,,FEW300,0.00,380.00,VWS V14.01,2014-01-02 21:37:00,
2014-01-02 14:42:00,57.6,14.4,30.26,South,175,0.0,2.0,18,0.00,,FEW300,0.00,369.00,VWS V14.01,2014-01-02 21:42:00,
2014-01-02 14:47:00,57.5,14.4,30.26,South,175,0.0,6.0,18,0.00,,FEW300,0.00,357.00,VWS V14.01,2014-01-02 21:47:00,
2014-01-02 14:52:00,57.2,14.1,30.25,South,186,0.0,7.0,18,0.00,,FEW300,0.00,348.00,VWS V14.01,2014-01-02 21:52:00,
2014-01-02 14:57:00,56.7,13.7,30.26,South,173,0.0,4.0,18,0.00,,FEW300,0.00,332.00,VWS V14.01,2014-01-02 21:57:00,
2014-01-02 15:02:00,56.8,15.0,30.25,South,175,0.0,5.0,19,0.00,,FEW300,0.00,313.00,VWS V14.01,2014-01-02 22:02:00,
2014-01-02 15:07:00,57.0,15.2,30.25,South,176,0.0,3.0,19,0.00,,FEW300,0.00,288.00,VWS V14.01,2014-01-02 22:07:00,
2014-01-02 15:12:00,56.7,13.7,30.25,South,183,1.0,4.0,18,0.00,,FEW300,0.00,250.00,VWS V14.01,2014-01-02 22:12:00,
2014-01-02 15:17:00,56.4,14.7,30.25,SSW,192,0.0,4.0,19,0.00,,FEW300,0.00,274.00,VWS V14.01,2014-01-02 22:17:00,
2014-01-02 15:22:00,56.3,14.6,30.25,South,182,1.0,5.0,19,0.00,,FEW300,0.00,267.00,VWS V14.01,2014-01-02 22:22:00,
2014-01-02 15:27:00,56.0,15.5,30.25,South,182,0.0,5.0,20,0.00,,FEW300,0.00,244.00,VWS V14.01,2014-01-02 22:27:00,
2014-01-02 15:32:00,55.7,14.1,30.25,SSW,205,5.0,6.0,19,0.00,,FEW300,0.00,225.00,VWS V14.01,2014-01-02 22:32:00,
2014-01-02 15:37:00,55.1,14.8,30.25,South,171,0.0,6.0,20,0.00,,FEW300,0.00,199.00,VWS V14.01,2014-01-02 22:37:00,
2014-01-02 15:42:00,54.6,15.5,30.25,South,184,0.0,4.0,21,0.00,,FEW300,0.00,156.00,VWS V14.01,2014-01-02 22:42:00,
2014-01-02 15:47:00,54.3,15.2,30.25,South,180,2.0,5.0,21,0.00,,FEW300,0.00,107.00,VWS V14.01,2014-01-02 22:47:00,
2014-01-02 15:52:00,54.0,16.0,30.25,South,175,2.0,7.0,22,0.00,,FEW300,0.00,151.00,VWS V14.01,2014-01-02 22:52:00,
2014-01-02 15:57:00,53.6,16.7,30.25,South,177,0.0,5.0,23,0.00,,FEW300,0.00,77.00,VWS V14.01,2014-01-02 22:57:00,
2014-01-02 16:02:00,53.1,16.3,30.25,South,177,0.0,3.0,23,0.00,,FEW300,0.00,46.00,VWS V14.01,2014-01-02 23:02:00,
2014-01-02 16:07:00,52.8,16.0,30.25,South,180,0.0,4.0,23,0.00,,FEW300,0.00,42.00,VWS V14.01,2014-01-02 23:07:00,
2014-01-02 16:12:00,52.4,15.7,30.25,SSE,161,0.0,5.0,23,0.00,,FEW300,0.00,46.00,VWS V14.01,2014-01-02 23:12:00,
2014-01-02 16:18:00,51.8,16.2,30.25,South,178,0.0,4.0,24,0.00,,FEW300,0.00,28.00,VWS V14.01,2014-01-02 23:18:00,
2014-01-02 16:23:00,51.3,15.8,30.25,South,178,2.0,6.0,24,0.00,,FEW300,0.00,23.00,VWS V14.01,2014-01-02 23:23:00,
2014-01-02 16:28:00,50.8,16.3,30.25,SSE,167,1.0,6.0,25,0.00,,FEW300,0.00,23.00,VWS V14.01,2014-01-02 23:28:00,
2014-01-02 16:33:00,50.5,16.0,30.25,South,171,2.0,5.0,25,0.00,,FEW300,0.00,19.00,VWS V14.01,2014-01-02 23:33:00,
2014-01-02 16:38:00,50.2,15.8,30.25,South,170,2.0,5.0,25,0.00,,FEW300,0.00,19.00,VWS V14.01,2014-01-02 23:38:00,
2014-01-02 16:43:00,50.0,15.6,30.25,South,171,0.0,4.0,25,0.00,,FEW300,0.00,16.00,VWS V14.01,2014-01-02 23:43:00,
2014-01-02 16:48:00,49.6,16.1,30.25,South,171,1.0,4.0,26,0.00,,FEW300,0.00,14.00,VWS V14.01,2014-01-02 23:48:00,
2014-01-02 16:53:00,49.3,15.9,30.25,South,171,0.0,4.0,26,0.00,,FEW300,0.00,12.00,VWS V14.01,2014-01-02 23:53:00,
2014-01-02 16:58:00,48.9,15.5,30.25,South,171,0.0,4.0,26,0.00,,FEW300,0.00,9.00,VWS V14.01,2014-01-02 23:58:00,
2014-01-02 17:03:00,48.6,15.3,30.25,South,171,0.0,2.0,26,0.00,,FEW300,0.00,7.00,VWS V14.01,2014-01-03 00:03:00,
2014-01-02 17:08:00,48.5,15.2,30.25,South,171,1.0,2.0,26,0.00,,FEW300,0.00,7.00,VWS V14.01,2014-01-03 00:08:00,
2014-01-02 17:13:00,47.9,15.6,30.25,South,171,3.0,3.0,27,0.00,,FEW300,0.00,0.00,VWS V14.01,2014-01-03 00:13:00,
2014-01-02 17:18:00,47.7,15.4,30.25,South,171,0.0,4.0,27,0.00,,FEW300,0.00,0.00,VWS V14.01,2014-01-03 00:18:00,
2014-01-02 17:23:00,47.4,15.9,30.25,South,171,0.0,1.0,28,0.00,,FEW300,0.00,0.00,VWS V14.01,2014-01-03 00:23:00,
2014-01-02 17:28:00,47.2,15.8,30.25,South,171,0.0,2.0,28,0.00,,FEW300,0.00,0.00,VWS V14.01,2014-01-03 00:28:00,
2014-01-02 17:33:00,46.9,15.5,30.25,South,171,0.0,4.0,28,0.00,,FEW300,0.00,0.00,VWS V14.01,2014-01-03 00:33:00,
2014-01-02 17:38:00,46.6,15.3,30.25,South,171,0.0,2.0,28,0.00,,FEW300,0.00,0.00,VWS V14.01,2014-01-03 00:38:00,
2014-01-02 17:43:00,46.4,15.9,30.25,South,171,0.0,0.0,29,0.00,,FEW300,0.00,0.00,VWS V14.01,2014-01-03 00:43:00,
2014-01-02 17:48:00,46.1,15.6,30.25,South,171,1.0,2.0,29,0.00,,FEW300,0.00,0.00,VWS V14.01,2014-01-03 00:48:00,
2014-01-02 17:53:00,45.7,15.3,30.25,South,171,0.0,2.0,29,0.00,,FEW300,0.00,0.00,VWS V14.01,2014-01-03 00:53:00,
2014-01-02 17:58:00,45.4,15.8,30.25,South,171,0.0,0.0,30,0.00,,FEW300,0.00,0.00,VWS V14.01,2014-01-03 00:58:00,
2014-01-02 18:03:00,44.8,15.3,30.25,South,171,0.0,0.0,30,0.00,,SCT300,0.00,0.00,VWS V14.01,2014-01-03 01:03:00,
2014-01-02 18:08:00,44.5,15.8,30.25,South,171,0.0,0.0,31,0.00,,SCT300,0.00,0.00,VWS V14.01,2014-01-03 01:08:00,
2014-01-02 18:13:00,44.1,15.4,30.25,South,171,0.0,1.0,31,0.00,,SCT300,0.00,0.00,VWS V14.01,2014-01-03 01:13:00,
2014-01-02 18:18:00,43.7,15.1,30.25,South,171,0.0,2.0,31,0.00,,SCT300,0.00,0.00,VWS V14.01,2014-01-03 01:18:00,
2014-01-02 18:23:00,43.2,15.4,30.25,South,171,0.0,2.0,32,0.00,,SCT300,0.00,0.00,VWS V14.01,2014-01-03 01:23:00,
2014-01-02 18:29:00,42.8,15.0,30.25,South,171,0.0,2.0,32,0.00,,SCT300,0.00,0.00,VWS V14.01,2014-01-03 01:29:00,
2014-01-02 18:34:00,42.5,14.7,30.25,South,171,0.0,0.0,32,0.00,,SCT300,0.00,0.00,VWS V14.01,2014-01-03 01:34:00,
2014-01-02 18:39:00,42.2,15.2,30.25,South,171,1.0,1.0,33,0.00,,SCT300,0.00,0.00,VWS V14.01,2014-01-03 01:39:00,
2014-01-02 18:44:00,41.9,14.9,30.25,South,171,0.0,1.0,33,0.00,,SCT300,0.00,0.00,VWS V14.01,2014-01-03 01:44:00,
2014-01-02 18:49:00,41.5,14.6,30.25,South,171,0.0,0.0,33,0.00,,SCT300,0.00,0.00,VWS V14.01,2014-01-03 01:49:00,
2014-01-02 18:54:00,41.1,14.9,30.25,South,171,0.0,0.0,34,0.00,,SCT300,0.00,0.00,VWS V14.01,2014-01-03 01:54:00,
2014-01-02 18:59:00,40.7,14.5,30.25,South,171,0.0,0.0,34,0.00,,SCT300,0.00,0.00,VWS V14.01,2014-01-03 01:59:00,
2014-01-02 19:04:00,40.3,14.8,30.25,South,171,0.0,0.0,35,0.00,,SCT300,0.00,0.00,VWS V14.01,2014-01-03 02:04:00,
2014-01-02 19:10:00,39.9,14.5,30.25,South,171,2.0,3.0,35,0.00,,SCT300,0.00,0.00,VWS V14.01,2014-01-03 02:10:00,
2014-01-02 19:14:00,39.6,14.2,30.25,South,171,0.0,0.0,35,0.00,,SCT300,0.00,0.00,VWS V14.01,2014-01-03 02:14:00,
2014-01-02 19:19:00,39.4,13.4,30.25,South,171,0.0,1.0,34,0.00,,SCT300,0.00,0.00,VWS V14.01,2014-01-03 02:19:00,
2014-01-02 19:24:00,39.1,13.8,30.25,South,171,0.0,1.0,35,0.00,,SCT300,0.00,0.00,VWS V14.01,2014-01-03 02:24:00,
2014-01-02 19:29:00,38.9,13.6,30.25,South,171,0.0,0.0,35,0.00,,SCT300,0.00,0.00,VWS V14.01,2014-01-03 02:29:00,
2014-01-02 19:34:00,38.6,14.0,30.25,South,171,0.0,0.0,36,0.00,,SCT300,0.00,0.00,VWS V14.01,2014-01-03 02:34:00,
2014-01-02 19:39:00,38.2,13.6,30.25,South,171,0.0,0.0,36,0.00,,SCT300,0.00,0.00,VWS V14.01,2014-01-03 02:39:00,
2014-01-02 19:44:00,37.9,14.6,30.25,South,171,0.0,0.0,38,0.00,,SCT300,0.00,0.00,VWS V14.01,2014-01-03 02:44:00,
2014-01-02 19:50:00,37.7,14.4,30.25,South,171,0.0,0.0,38,0.00,,SCT300,0.00,0.00,VWS V14.01,2014-01-03 02:50:00,
2014-01-02 19:55:00,37.4,14.7,30.25,South,171,0.0,0.0,39,0.00,,SCT300,0.00,0.00,VWS V14.01,2014-01-03 02:55:00,
2014-01-02 20:00:00,37.1,14.4,30.25,South,171,0.0,0.0,39,0.00,,SCT300,0.00,0.00,VWS V14.01,2014-01-03 03:00:00,
2014-01-02 20:05:00,36.9,14.3,30.25,South,171,0.0,0.0,39,0.00,,FEW250,0.00,0.00,VWS V14.01,2014-01-03 03:05:00,
2014-01-02 20:10:00,36.6,14.0,30.25,South,171,0.0,0.0,39,0.00,,FEW250,0.00,0.00,VWS V14.01,2014-01-03 03:10:00,
2014-01-02 20:15:00,36.2,14.2,30.25,South,171,0.0,0.0,40,0.00,,FEW250,0.00,0.00,VWS V14.01,2014-01-03 03:15:00,
2014-01-02 20:20:00,35.8,14.4,30.25,South,171,3.0,3.0,41,0.00,,FEW250,0.00,0.00,VWS V14.01,2014-01-03 03:20:00,
2014-01-02 20:25:00,35.5,14.1,30.25,South,171,0.0,0.0,41,0.00,,FEW250,0.00,0.00,VWS V14.01,2014-01-03 03:25:00,
2014-01-02 20:30:00,35.1,13.8,30.25,South,171,0.0,0.0,41,0.00,,FEW250,0.00,0.00,VWS V14.01,2014-01-03 03:30:00,
2014-01-02 20:35:00,34.8,13.5,30.25,South,171,0.0,0.0,41,0.00,,FEW250,0.00,0.00,VWS V14.01,2014-01-03 03:35:00,
2014-01-02 20:40:00,34.6,13.9,30.25,South,171,0.0,0.0,42,0.00,,FEW250,0.00,0.00,VWS V14.01,2014-01-03 03:40:00,
2014-01-02 20:45:00,34.4,13.7,30.25,South,171,0.0,0.0,42,0.00,,FEW250,0.00,0.00,VWS V14.01,2014-01-03 03:45:00,
2014-01-02 20:50:00,34.1,13.4,30.25,South,171,0.0,0.0,42,0.00,,FEW250,0.00,0.00,VWS V14.01,2014-01-03 03:50:00,
2014-01-02 20:55:00,33.8,13.1,30.25,South,171,0.0,0.0,42,0.00,,FEW250,0.00,0.00,VWS V14.01,2014-01-03 03:55:00,
2014-01-02 21:00:00,33.5,13.4,30.25,South,171,0.0,0.0,43,0.00,,FEW250,0.00,0.00,VWS V14.01,2014-01-03 04:00:00,
2014-01-02 21:05:00,33.3,13.2,30.25,South,171,0.0,0.0,43,0.00,,FEW250,0.00,0.00,VWS V14.01,2014-01-03 04:05:00,
2014-01-02 21:10:00,32.8,13.3,30.25,South,171,0.0,0.0,44,0.00,,FEW250,0.00,0.00,VWS V14.01,2014-01-03 04:10:00,
2014-01-02 21:15:00,32.5,13.0,30.25,South,171,0.0,0.0,44,0.00,,FEW250,0.00,0.00,VWS V14.01,2014-01-03 04:15:00,
2014-01-02 21:20:00,32.3,12.8,30.25,South,171,0.0,0.0,44,0.00,,FEW250,0.00,0.00,VWS V14.01,2014-01-03 04:20:00,
2014-01-02 21:25:00,32.0,12.6,30.25,South,171,0.0,0.0,44,0.00,,FEW250,0.00,0.00,VWS V14.01,2014-01-03 04:25:00,
2014-01-02 21:31:00,31.8,12.9,30.25,South,171,0.0,0.0,45,0.00,,FEW250,0.00,0.00,VWS V14.01,2014-01-03 04:31:00,
2014-01-02 21:36:00,31.6,12.7,30.25,South,171,0.0,0.0,45,0.00,,FEW250,0.00,0.00,VWS V14.01,2014-01-03 04:36:00,
2014-01-02 21:41:00,31.4,13.0,30.25,South,171,0.0,0.0,46,0.00,,FEW250,0.00,0.00,VWS V14.01,2014-01-03 04:41:00,
2014-01-02 21:46:00,31.2,12.8,30.25,South,171,0.0,0.0,46,0.00,,FEW250,0.00,0.00,VWS V14.01,2014-01-03 04:46:00,
2014-01-02 21:51:00,31.0,12.7,30.24,South,171,0.0,0.0,46,0.00,,FEW250,0.00,0.00,VWS V14.01,2014-01-03 04:51:00,
2014-01-02 21:56:00,30.8,13.0,30.24,South,171,0.0,0.0,47,0.00,,FEW250,0.00,0.00,VWS V14.01,2014-01-03 04:56:00,
2014-01-02 22:01:00,30.6,13.3,30.24,South,171,2.0,2.0,48,0.00,,FEW250,0.00,0.00,VWS V14.01,2014-01-03 05:01:00,
2014-01-02 22:02:00,30.6,13.3,30.24,South,171,0.0,2.0,48,0.00,,FEW250,0.00,0.00,VWS V14.01,2014-01-03 05:02:00,
2014-01-02 22:03:00,30.5,13.2,30.24,South,171,0.0,2.0,48,0.00,,FEW250,0.00,0.00,VWS V14.01,2014-01-03 05:03:00,
2014-01-02 22:04:00,30.5,13.2,30.24,South,171,0.0,2.0,48,0.00,,FEW250,0.00,0.00,VWS V14.01,2014-01-03 05:04:00,
2014-01-02 22:09:00,30.4,13.1,30.24,South,171,0.0,2.0,48,0.00,,FEW250,0.00,0.00,VWS V14.01,2014-01-03 05:09:00,
2014-01-02 22:14:00,30.3,13.4,30.24,South,171,0.0,0.0,49,0.00,,FEW250,0.00,0.00,VWS V14.01,2014-01-03 05:14:00,
2014-01-02 22:19:00,30.2,13.4,30.24,South,171,0.0,0.0,49,0.00,,FEW250,0.00,0.00,VWS V14.01,2014-01-03 05:19:00,
2014-01-02 22:24:00,30.2,13.4,30.24,South,171,0.0,0.0,49,0.00,,FEW250,0.00,0.00,VWS V14.01,2014-01-03 05:24:00,
2014-01-02 22:29:00,30.1,13.3,30.24,South,171,0.0,0.0,49,0.00,,FEW250,0.00,0.00,VWS V14.01,2014-01-03 05:29:00,
2014-01-02 22:34:00,30.0,13.2,30.24,South,171,0.0,0.0,49,0.00,,FEW250,0.00,0.00,VWS V14.01,2014-01-03 05:34:00,
2014-01-02 22:39:00,29.9,13.5,30.24,South,171,0.0,0.0,50,0.00,,FEW250,0.00,0.00,VWS V14.01,2014-01-03 05:39:00,
2014-01-02 22:44:00,29.9,13.5,30.24,South,171,0.0,0.0,50,0.00,,FEW250,0.00,0.00,VWS V14.01,2014-01-03 05:44:00,
2014-01-02 22:49:00,29.9,13.5,30.24,South,171,0.0,0.0,50,0.00,,FEW250,0.00,0.00,VWS V14.01,2014-01-03 05:49:00,
2014-01-02 22:54:00,29.8,13.4,30.24,South,171,0.0,0.0,50,0.00,,FEW250,0.00,0.00,VWS V14.01,2014-01-03 05:54:00,
2014-01-02 22:59:00,29.8,13.4,30.24,South,171,0.0,0.0,50,0.00,,FEW250,0.00,0.00,VWS V14.01,2014-01-03 05:59:00,
2014-01-02 23:04:00,29.8,13.4,30.24,South,171,0.0,0.0,50,0.00,,FEW250,0.00,0.00,VWS V14.01,2014-01-03 06:04:00,
2014-01-02 23:09:00,29.8,13.4,30.24,South,171,0.0,0.0,50,0.00,,FEW250,0.00,0.00,VWS V14.01,2014-01-03 06:09:00,
2014-01-02 23:14:00,29.7,13.4,30.23,South,171,0.0,0.0,50,0.00,,FEW250,0.00,0.00,VWS V14.01,2014-01-03 06:14:00,
2014-01-02 23:19:00,29.7,13.4,30.23,South,171,0.0,0.0,50,0.00,,FEW250,0.00,0.00,VWS V14.01,2014-01-03 06:19:00,
2014-01-02 23:24:00,29.6,13.7,30.23,South,171,0.0,0.0,51,0.00,,FEW250,0.00,0.00,VWS V14.01,2014-01-03 06:24:00,
2014-01-02 23:29:00,29.5,13.6,30.23,South,171,0.0,0.0,51,0.00,,FEW250,0.00,0.00,VWS V14.01,2014-01-03 06:29:00,
2014-01-02 23:34:00,29.4,13.5,30.23,South,171,0.0,0.0,51,0.00,,FEW250,0.00,0.00,VWS V14.01,2014-01-03 06:34:00,
2014-01-02 23:40:00,29.3,13.4,30.23,South,171,0.0,0.0,51,0.00,,FEW250,0.00,0.00,VWS V14.01,2014-01-03 06:40:00,
2014-01-02 23:45:00,29.1,13.7,30.23,South,171,0.0,0.0,52,0.00,,FEW250,0.00,0.00,VWS V14.01,2014-01-03 06:45:00,
2014-01-02 23:50:00,29.0,13.1,30.23,South,171,0.0,0.0,51,0.00,,FEW250,0.00,0.00,VWS V14.01,2014-01-03 06:50:00,
2014-01-02 23:55:00,28.8,13.0,30.23,South,171,0.0,0.0,51,0.00,,FEW250,0.00,0.00,VWS V14.01,2014-01-03 06:55:00,